createdAt,value
2023-03-28T00:02:06.493Z,2.20
2023-03-28T00:04:34.739Z,2.20
2023-03-28T00:07:03.527Z,2.10
2023-03-28T00:09:31.597Z,2.10
2023-03-28T00:12:01.408Z,2.10
2023-03-28T00:14:29.480Z,2.10
2023-03-28T00:17:01.720Z,2.10
2023-03-28T00:19:33.029Z,2.10
2023-03-28T00:22:01.281Z,2.10
2023-03-28T00:24:29.480Z,2.10
2023-03-28T00:27:00.439Z,2.10
2023-03-28T00:29:30.164Z,2.10
2023-03-28T00:31:58.785Z,2.10
2023-03-28T00:34:26.956Z,2.10
2023-03-28T00:36:55.373Z,2.10
2023-03-28T00:39:24.434Z,2.20
2023-03-28T00:41:52.589Z,2.10
2023-03-28T00:44:39.875Z,2.10
2023-03-28T00:47:12.855Z,2.20
2023-03-28T00:49:41.024Z,1.50
2023-03-28T00:52:09.625Z,2.20
2023-03-28T00:54:39.660Z,2.20
2023-03-28T00:57:08.988Z,2.20
2023-03-28T00:59:38.712Z,2.20
2023-03-28T01:02:07.193Z,2.20
2023-03-28T01:04:39.244Z,2.20
2023-03-28T01:07:07.741Z,2.30
2023-03-28T01:09:39.013Z,2.20
2023-03-28T01:12:07.152Z,2.30
2023-03-28T01:14:38.041Z,2.20
2023-03-28T01:17:07.255Z,2.20
2023-03-28T01:19:45.531Z,2.20
2023-03-28T01:22:26.784Z,2.20
2023-03-28T01:25:23.222Z,2.20
2023-03-28T01:27:54.458Z,2.20
2023-03-28T01:30:51.955Z,2.20
2023-03-28T01:33:58.310Z,2.20
2023-03-28T01:36:48.467Z,2.10
2023-03-28T01:39:23.148Z,2.10
2023-03-28T01:41:54.204Z,2.10
2023-03-28T01:44:26.109Z,2.10
2023-03-28T01:47:00.380Z,2.00
2023-03-28T01:49:34.568Z,2.00
2023-03-28T01:52:10.069Z,1.90
2023-03-28T01:54:43.166Z,1.90
2023-03-28T01:57:16.407Z,1.80
2023-03-28T01:59:46.745Z,1.90
2023-03-28T02:02:30.496Z,1.90
2023-03-28T02:05:04.702Z,1.80
2023-03-28T02:07:37.110Z,1.80
2023-03-28T02:10:12.342Z,1.80
2023-03-28T02:13:08.780Z,1.80
2023-03-28T02:16:11.728Z,1.70
2023-03-28T02:19:00.613Z,1.70
2023-03-28T02:21:31.056Z,1.70
2023-03-28T02:24:07.424Z,1.60
2023-03-28T02:26:57.533Z,1.60
2023-03-28T02:29:44.700Z,1.60
2023-03-28T02:32:17.128Z,1.60
2023-03-28T02:34:48.739Z,1.60
2023-03-28T02:37:23.370Z,1.60
2023-03-28T02:39:56.738Z,1.60
2023-03-28T02:42:33.223Z,1.50
2023-03-28T02:45:07.968Z,1.50
2023-03-28T02:47:38.504Z,1.50
2023-03-28T02:50:14.331Z,1.40
2023-03-28T02:52:51.956Z,1.40
2023-03-28T02:55:23.840Z,1.40
2023-03-28T02:58:15.384Z,1.40
2023-03-28T03:00:51.574Z,1.40
2023-03-28T03:03:20.093Z,1.40
2023-03-28T03:05:48.216Z,1.50
2023-03-28T03:08:17.580Z,1.40
2023-03-28T03:10:45.970Z,1.50
2023-03-28T03:13:17.075Z,1.40
2023-03-28T03:15:46.143Z,1.40
2023-03-28T03:18:22.381Z,1.40
2023-03-28T03:20:51.178Z,1.50
2023-03-28T03:23:19.874Z,1.40
2023-03-28T03:25:50.502Z,1.40
2023-03-28T03:28:25.730Z,1.30
2023-03-28T03:30:53.836Z,1.40
2023-03-28T03:33:41.778Z,1.30
2023-03-28T03:36:13.599Z,1.30
2023-03-28T03:38:43.310Z,1.40
2023-03-28T03:41:16.392Z,1.40
2023-03-28T03:43:47.264Z,1.30
2023-03-28T03:46:15.703Z,1.40
2023-03-28T03:48:49.173Z,1.30
2023-03-28T03:51:19.382Z,1.40
2023-03-28T03:53:52.007Z,1.30
2023-03-28T03:56:23.957Z,1.30
2023-03-28T03:59:00.411Z,1.30
2023-03-28T04:01:31.674Z,1.30
2023-03-28T04:04:21.299Z,1.30
2023-03-28T04:07:11.535Z,1.30
2023-03-28T04:09:40.219Z,1.30
2023-03-28T04:12:08.704Z,1.30
2023-03-28T04:15:09.158Z,1.20
2023-03-28T04:17:37.709Z,1.30
2023-03-28T04:20:15.225Z,1.20
2023-03-28T04:23:01.989Z,1.20
2023-03-28T04:25:33.188Z,1.20
2023-03-28T04:28:09.313Z,1.20
2023-03-28T04:30:45.980Z,1.20
2023-03-28T04:33:30.168Z,1.20
2023-03-28T04:36:02.375Z,1.10
2023-03-28T04:38:32.453Z,1.10
2023-03-28T04:41:16.999Z,1.10
2023-03-28T04:44:03.435Z,1.10
2023-03-28T04:46:37.848Z,1.10
2023-03-28T04:49:11.970Z,1.00
2023-03-28T04:51:41.186Z,1.00
2023-03-28T04:54:09.327Z,1.00
2023-03-28T04:57:00.635Z,1.00
2023-03-28T04:59:38.758Z,1.00
2023-03-28T05:02:09.069Z,1.00
2023-03-28T05:04:45.064Z,0.90
2023-03-28T05:07:15.796Z,0.90
2023-03-28T05:09:44.517Z,0.90
2023-03-28T05:12:12.637Z,0.90
2023-03-28T05:14:56.679Z,0.90
2023-03-28T05:17:27.148Z,0.90
2023-03-28T05:20:01.132Z,0.90
2023-03-28T05:22:37.271Z,0.80
2023-03-28T05:25:06.421Z,0.80
2023-03-28T05:27:38.509Z,0.80
2023-03-28T05:30:07.315Z,0.80
2023-03-28T05:32:38.886Z,0.80
2023-03-28T05:35:11.926Z,0.80
2023-03-28T05:37:42.979Z,0.80
2023-03-28T05:40:13.300Z,0.80
2023-03-28T05:42:44.117Z,0.80
2023-03-28T05:45:15.698Z,0.80
2023-03-28T05:48:20.710Z,0.80
2023-03-28T05:50:50.385Z,0.90
2023-03-28T05:53:19.136Z,0.90
2023-03-28T05:55:47.568Z,0.90
2023-03-28T05:58:16.259Z,0.90
2023-03-28T06:00:45.599Z,0.90
2023-03-28T06:03:17.348Z,0.90
2023-03-28T06:05:49.299Z,0.90
2023-03-28T06:08:29.328Z,1.00
2023-03-28T06:11:00.973Z,1.10
2023-03-28T06:13:47.744Z,1.10
2023-03-28T06:16:16.161Z,1.20
2023-03-28T06:18:44.453Z,1.20
2023-03-28T06:21:14.350Z,1.20
2023-03-28T06:23:42.488Z,1.20
2023-03-28T06:26:22.511Z,1.30
2023-03-28T06:28:50.537Z,1.30
2023-03-28T06:31:34.897Z,1.40
2023-03-28T06:34:04.686Z,1.40
2023-03-28T06:36:35.580Z,1.40
2023-03-28T06:39:04.299Z,1.40
2023-03-28T06:41:32.753Z,1.50
2023-03-28T06:44:01.178Z,1.60
2023-03-28T06:46:57.464Z,1.70
2023-03-28T06:49:25.948Z,1.80
2023-03-28T06:52:15.720Z,1.80
2023-03-28T06:54:48.428Z,1.80
2023-03-28T06:57:17.475Z,1.90
2023-03-28T06:59:48.128Z,2.00
2023-03-28T07:02:22.459Z,2.20
2023-03-28T07:04:51.734Z,2.40
2023-03-28T07:07:22.229Z,2.70
2023-03-28T07:09:52.095Z,2.80
2023-03-28T07:12:20.634Z,3.00
2023-03-28T07:14:49.360Z,3.20
2023-03-28T07:17:17.385Z,3.20
2023-03-28T07:19:49.121Z,3.30
2023-03-28T07:22:17.133Z,3.40
2023-03-28T07:24:46.710Z,3.50
2023-03-28T07:27:16.873Z,3.50
2023-03-28T07:29:47.332Z,3.40
2023-03-28T07:32:15.926Z,3.40
2023-03-28T07:34:46.155Z,3.30
2023-03-28T07:37:20.606Z,3.30
2023-03-28T07:40:10.792Z,3.30
2023-03-28T07:42:41.294Z,3.30
2023-03-28T07:45:10.815Z,3.30
2023-03-28T07:47:39.009Z,3.40
2023-03-28T07:50:08.531Z,3.60
2023-03-28T07:52:44.127Z,3.80
2023-03-28T07:55:15.270Z,3.90
2023-03-28T07:57:47.940Z,4.00
2023-03-28T08:00:27.778Z,3.90
2023-03-28T08:03:17.192Z,4.00
2023-03-28T08:05:52.174Z,4.10
2023-03-28T08:08:22.522Z,4.10
2023-03-28T08:11:07.676Z,4.20
2023-03-28T08:13:36.016Z,4.10
2023-03-28T08:16:11.335Z,4.10
2023-03-28T08:18:39.776Z,3.90
2023-03-28T08:21:08.839Z,3.90
2023-03-28T08:23:38.192Z,4.00
2023-03-28T08:26:32.293Z,4.10
2023-03-28T08:29:02.505Z,4.20
2023-03-28T08:31:30.722Z,4.20
2023-03-28T08:34:05.614Z,4.20
2023-03-28T08:36:38.246Z,4.20
2023-03-28T08:39:10.026Z,4.20
2023-03-28T08:41:48.227Z,4.10
2023-03-28T08:44:26.077Z,4.00
2023-03-28T08:46:56.815Z,4.00
2023-03-28T08:49:25.522Z,4.10
2023-03-28T08:51:57.220Z,4.10
2023-03-28T08:54:28.367Z,4.10
2023-03-28T08:56:58.943Z,4.00
2023-03-28T08:59:30.802Z,4.10
2023-03-28T09:01:59.004Z,4.20
2023-03-28T09:04:28.669Z,4.30
2023-03-28T09:07:10.951Z,4.40
2023-03-28T09:09:44.349Z,4.40
2023-03-28T09:12:43.004Z,4.40
2023-03-28T09:15:18.012Z,4.40
2023-03-28T09:17:49.806Z,4.40
2023-03-28T09:20:22.235Z,4.40
2023-03-28T09:22:57.032Z,4.50
2023-03-28T09:25:38.567Z,4.60
2023-03-28T09:28:13.011Z,4.60
2023-03-28T09:30:45.629Z,4.70
2023-03-28T09:33:16.050Z,4.70
2023-03-28T09:35:46.238Z,4.80
2023-03-28T09:38:19.890Z,5.00
2023-03-28T09:40:53.126Z,5.10
2023-03-28T09:43:28.786Z,5.20
2023-03-28T09:46:30.452Z,5.30
2023-03-28T09:49:19.048Z,5.50
2023-03-28T09:51:55.687Z,5.70
2023-03-28T09:54:28.674Z,6.00
2023-03-28T09:57:00.272Z,6.20
2023-03-28T09:59:42.110Z,6.40
2023-03-28T10:02:36.382Z,6.50
2023-03-28T10:05:31.032Z,6.50
2023-03-28T10:08:06.096Z,6.70
2023-03-28T10:10:56.954Z,6.70
2023-03-28T10:13:27.415Z,6.60
2023-03-28T10:15:59.538Z,6.50
2023-03-28T10:18:35.903Z,6.30
2023-03-28T10:21:31.929Z,6.30
2023-03-28T10:24:18.186Z,6.40
2023-03-28T10:26:53.850Z,6.50
2023-03-28T10:29:23.186Z,6.60
2023-03-28T10:31:52.874Z,6.70
2023-03-28T10:34:30.083Z,6.90
2023-03-28T10:37:25.960Z,7.00
2023-03-28T10:40:25.502Z,7.30
2023-03-28T10:42:59.985Z,7.50
2023-03-28T10:45:51.195Z,7.50
2023-03-28T10:48:37.286Z,7.40
2023-03-28T10:51:15.730Z,7.30
2023-03-28T10:53:50.078Z,7.20
2023-03-28T10:56:26.006Z,6.90
2023-03-28T10:59:00.455Z,6.80
2023-03-28T11:01:35.721Z,6.70
2023-03-28T11:04:16.616Z,6.90
2023-03-28T11:06:47.976Z,7.10
2023-03-28T11:09:23.516Z,7.30
2023-03-28T11:12:28.655Z,7.30
2023-03-28T11:15:06.138Z,7.40
2023-03-28T11:17:48.606Z,7.30
2023-03-28T11:20:31.657Z,7.30
2023-03-28T11:23:14.806Z,7.20
2023-03-28T11:25:57.354Z,7.30
2023-03-28T11:29:05.286Z,7.40
2023-03-28T11:31:39.249Z,7.80
2023-03-28T11:34:13.182Z,8.00
2023-03-28T11:36:44.535Z,7.90
2023-03-28T11:39:18.635Z,7.80
2023-03-28T11:41:48.978Z,7.90
2023-03-28T11:44:35.112Z,8.10
2023-03-28T11:47:08.208Z,8.30
2023-03-28T11:49:42.497Z,8.40
2023-03-28T11:52:35.574Z,8.40
2023-03-28T11:55:14.957Z,8.60
2023-03-28T11:57:49.102Z,8.70
2023-03-28T12:00:33.129Z,8.80
2023-03-28T12:03:11.963Z,8.70
2023-03-28T12:05:47.775Z,8.60
2023-03-28T12:08:18.210Z,8.70
2023-03-28T12:10:51.463Z,8.80
2023-03-28T12:13:31.618Z,8.90
2023-03-28T12:16:08.333Z,9.00
2023-03-28T12:18:41.264Z,9.10
2023-03-28T12:21:19.419Z,9.00
2023-03-28T12:23:53.504Z,9.10
2023-03-28T12:26:39.448Z,9.20
2023-03-28T12:29:11.383Z,9.20
2023-03-28T12:31:42.904Z,9.30
2023-03-28T12:34:20.838Z,9.30
2023-03-28T12:37:19.095Z,9.40
2023-03-28T12:39:51.473Z,9.60
2023-03-28T12:42:27.690Z,9.70
2023-03-28T12:44:58.792Z,9.90
2023-03-28T12:47:29.657Z,9.80
2023-03-28T12:50:00.938Z,9.80
2023-03-28T12:52:33.613Z,9.90
2023-03-28T12:55:04.811Z,10.00
2023-03-28T12:57:44.515Z,10.00
2023-03-28T13:00:25.683Z,10.00
2023-03-28T13:03:36.063Z,10.00
2023-03-28T13:06:08.007Z,10.00
2023-03-28T13:08:43.105Z,10.10
2023-03-28T13:11:15.851Z,10.40
2023-03-28T13:13:50.803Z,10.70
2023-03-28T13:16:23.746Z,10.90
2023-03-28T13:19:06.327Z,11.20
2023-03-28T13:21:42.532Z,11.50
2023-03-28T13:24:27.866Z,11.40
2023-03-28T13:26:56.694Z,11.70
2023-03-28T13:29:43.637Z,12.00
2023-03-28T13:32:14.526Z,12.20
2023-03-28T13:34:47.923Z,12.20
2023-03-28T13:37:22.967Z,12.20
2023-03-28T13:39:52.485Z,12.50
2023-03-28T13:42:27.796Z,13.10
2023-03-28T13:45:00.149Z,13.80
2023-03-28T13:47:32.022Z,14.40
2023-03-28T13:50:02.754Z,14.80
2023-03-28T13:52:32.289Z,15.70
2023-03-28T13:55:05.557Z,16.60
2023-03-28T13:57:33.700Z,17.40
2023-03-28T14:03:02.130Z,17.90
2023-03-28T14:05:32.293Z,18.50
2023-03-28T14:08:03.690Z,18.70
2023-03-28T14:10:33.853Z,18.80
2023-03-28T14:13:03.622Z,18.50
2023-03-28T14:15:36.152Z,18.40
2023-03-28T14:18:04.578Z,18.30
2023-03-28T14:20:33.672Z,18.00
2023-03-28T14:23:01.889Z,17.20
2023-03-28T14:25:30.757Z,16.40
2023-03-28T14:28:07.459Z,15.60
2023-03-28T14:30:40.115Z,14.90
2023-03-28T14:33:16.576Z,14.30
2023-03-28T14:35:45.588Z,13.60
2023-03-28T14:38:15.102Z,13.10
2023-03-28T14:40:46.311Z,12.70
2023-03-28T14:43:21.306Z,12.20
2023-03-28T14:45:54.170Z,11.90
2023-03-28T14:48:24.210Z,11.50
2023-03-28T14:50:57.186Z,11.20
2023-03-28T14:53:27.139Z,11.10
2023-03-28T14:56:00.765Z,11.00
2023-03-28T14:58:31.629Z,10.80
2023-03-28T15:01:02.718Z,10.50
2023-03-28T15:03:33.592Z,10.40
2023-03-28T15:06:02.541Z,10.20
2023-03-28T15:08:34.521Z,10.20
2023-03-28T15:11:05.652Z,10.00
2023-03-28T15:13:34.681Z,9.90
2023-03-28T15:16:05.375Z,9.70
2023-03-28T15:18:38.666Z,9.60
2023-03-28T15:21:08.094Z,9.60
2023-03-28T15:23:41.360Z,9.50
2023-03-28T15:26:12.136Z,9.50
2023-03-28T15:28:41.053Z,9.40
2023-03-28T15:31:11.378Z,9.30
2023-03-28T15:33:40.227Z,9.20
2023-03-28T15:36:09.319Z,9.20
2023-03-28T15:38:39.285Z,9.00
2023-03-28T15:41:09.319Z,8.90
2023-03-28T15:43:38.949Z,8.80
2023-03-28T15:46:12.772Z,8.80
2023-03-28T15:48:42.601Z,8.70
2023-03-28T15:51:14.041Z,8.60
2023-03-28T15:53:42.949Z,8.70
2023-03-28T15:56:14.698Z,8.70
2023-03-28T15:58:44.707Z,8.70
2023-03-28T16:01:21.794Z,8.70
2023-03-28T16:03:50.755Z,8.80
2023-03-28T16:06:30.714Z,8.90
2023-03-28T16:09:15.485Z,8.90
2023-03-28T16:11:44.406Z,9.00
2023-03-28T16:14:33.659Z,9.10
2023-03-28T16:17:25.540Z,9.00
2023-03-28T16:20:15.932Z,9.00
2023-03-28T16:22:44.632Z,9.00
2023-03-28T16:25:13.463Z,9.10
2023-03-28T16:27:42.454Z,9.10
2023-03-28T16:30:16.006Z,9.10
2023-03-28T16:32:45.436Z,9.10
2023-03-28T16:35:15.833Z,9.20
2023-03-28T16:37:44.295Z,9.00
2023-03-28T16:40:13.010Z,8.80
2023-03-28T16:42:41.318Z,8.70
2023-03-28T16:45:12.971Z,8.70
2023-03-28T16:47:41.966Z,8.70
2023-03-28T16:50:12.379Z,8.70
2023-03-28T16:52:41.313Z,8.70
2023-03-28T16:55:10.648Z,8.70
2023-03-28T16:57:41.316Z,8.70
2023-03-28T17:00:11.681Z,8.60
2023-03-28T17:02:39.839Z,8.60
2023-03-28T17:05:08.445Z,8.60
2023-03-28T17:07:37.885Z,8.60
2023-03-28T17:10:06.676Z,8.50
2023-03-28T17:12:34.794Z,8.50
2023-03-28T17:15:02.995Z,8.50
2023-03-28T17:17:31.171Z,8.50
2023-03-28T17:20:00.583Z,8.50
2023-03-28T17:22:31.030Z,8.60
2023-03-28T17:25:02.009Z,8.60
2023-03-28T17:27:31.471Z,8.60
2023-03-28T17:29:59.549Z,8.60
2023-03-28T17:32:35.457Z,8.60
2023-03-28T17:35:03.939Z,8.50
2023-03-28T17:37:31.963Z,8.60
2023-03-28T17:40:01.347Z,8.50
2023-03-28T17:42:30.616Z,8.50
2023-03-28T17:44:58.850Z,8.50
2023-03-28T17:47:26.960Z,8.50
2023-03-28T17:49:56.966Z,8.60
2023-03-28T17:52:25.359Z,8.60
2023-03-28T17:54:53.385Z,8.60
2023-03-28T17:57:29.237Z,8.70
2023-03-28T17:59:57.528Z,8.70
2023-03-28T18:02:25.930Z,8.70
2023-03-28T18:05:06.495Z,8.70
2023-03-28T18:07:36.358Z,8.60
2023-03-28T18:10:08.704Z,8.70
2023-03-28T18:12:38.137Z,8.60
2023-03-28T18:15:08.083Z,8.70
2023-03-28T18:17:36.241Z,8.70
2023-03-28T18:20:05.480Z,8.60
2023-03-28T18:22:34.658Z,8.60
2023-03-28T18:25:03.003Z,8.60
2023-03-28T18:27:31.291Z,8.70
2023-03-28T18:30:04.753Z,8.60
2023-03-28T18:32:32.939Z,8.60
2023-03-28T18:35:00.948Z,8.60
2023-03-28T18:37:29.914Z,8.50
2023-03-28T18:39:57.981Z,8.50
2023-03-28T18:42:26.208Z,8.50
2023-03-28T18:44:54.351Z,8.40
2023-03-28T18:47:23.715Z,8.30
2023-03-28T18:49:51.819Z,8.20
2023-03-28T18:52:20.069Z,8.20
2023-03-28T18:54:49.284Z,8.20
2023-03-28T18:57:17.364Z,8.30
2023-03-28T18:59:45.524Z,8.40
2023-03-28T19:02:14.216Z,8.30
2023-03-28T19:04:43.608Z,8.30
2023-03-28T19:07:13.348Z,8.30
2023-03-28T19:09:43.690Z,8.10
2023-03-28T19:12:12.548Z,7.90
2023-03-28T19:14:40.586Z,7.50
2023-03-28T19:17:10.627Z,7.20
2023-03-28T19:19:38.665Z,7.10
2023-03-28T19:22:08.268Z,7.10
2023-03-28T19:24:36.379Z,7.20
2023-03-28T19:27:05.398Z,7.30
2023-03-28T19:29:34.018Z,7.40
2023-03-28T19:32:02.035Z,7.40
2023-03-28T19:34:30.466Z,7.30
2023-03-28T19:36:58.449Z,7.30
2023-03-28T19:39:28.282Z,7.30
2023-03-28T19:41:56.708Z,7.40
2023-03-28T19:44:25.009Z,7.50
2023-03-28T19:46:53.562Z,7.40
2023-03-28T19:49:21.891Z,7.30
2023-03-28T19:51:49.917Z,7.20
2023-03-28T19:54:18.734Z,7.00
2023-03-28T19:56:48.609Z,6.90
2023-03-28T19:59:17.240Z,6.70
2023-03-28T20:01:45.349Z,6.60
2023-03-28T20:04:13.387Z,6.50
2023-03-28T20:06:42.826Z,6.50
2023-03-28T20:09:11.046Z,6.40
2023-03-28T20:11:42.209Z,6.40
2023-03-28T20:14:16.951Z,6.40
2023-03-28T20:16:44.969Z,6.50
2023-03-28T20:19:13.609Z,6.40
2023-03-28T20:21:41.634Z,6.40
2023-03-28T20:24:10.878Z,6.30
2023-03-28T20:26:39.790Z,6.10
2023-03-28T20:29:10.223Z,6.00
2023-03-28T20:31:39.735Z,6.00
2023-03-28T20:34:07.833Z,6.00
2023-03-28T20:36:36.226Z,6.20
2023-03-28T20:39:04.928Z,6.20
2023-03-28T20:41:32.982Z,6.20
2023-03-28T20:44:03.466Z,6.20
2023-03-28T20:46:33.034Z,6.10
2023-03-28T20:49:04.013Z,6.10
2023-03-28T20:51:32.111Z,6.20
2023-03-28T20:54:01.011Z,6.10
2023-03-28T20:56:30.611Z,5.90
2023-03-28T20:58:59.542Z,5.90
2023-03-28T21:01:30.108Z,6.00
2023-03-28T21:04:00.447Z,6.10
2023-03-28T21:06:33.222Z,6.20
2023-03-28T21:09:02.160Z,6.10
2023-03-28T21:11:31.264Z,5.90
2023-03-28T21:14:00.125Z,5.70
2023-03-28T21:16:28.849Z,5.60
2023-03-28T21:18:57.525Z,5.30
2023-03-28T21:21:29.602Z,5.40
2023-03-28T21:23:59.143Z,5.60
2023-03-28T21:26:28.903Z,5.70
2023-03-28T21:28:56.992Z,6.00
2023-03-28T21:31:26.505Z,5.40
2023-03-28T21:33:56.779Z,5.40
2023-03-28T21:36:25.371Z,5.40
2023-03-28T21:38:53.506Z,5.30
2023-03-28T21:41:23.361Z,5.10
2023-03-28T21:43:53.621Z,4.90
2023-03-28T21:46:21.863Z,4.70
2023-03-28T21:48:50.101Z,4.50
2023-03-28T21:51:18.240Z,4.30
2023-03-28T21:53:46.745Z,4.30
2023-03-28T21:56:16.452Z,4.30
2023-03-28T21:58:45.965Z,4.50
2023-03-28T22:01:15.020Z,4.70
2023-03-28T22:03:43.158Z,4.90
2023-03-28T22:06:11.470Z,5.00
2023-03-28T22:08:39.501Z,5.00
2023-03-28T22:11:13.393Z,4.80
2023-03-28T22:13:41.668Z,4.70
2023-03-28T22:16:12.760Z,4.70
2023-03-28T22:18:41.459Z,4.60
2023-03-28T22:21:13.983Z,4.70
2023-03-28T22:23:42.888Z,4.80
2023-03-28T22:26:12.535Z,4.90
2023-03-28T22:28:40.923Z,4.70
2023-03-28T22:31:09.056Z,4.70
2023-03-28T22:33:38.502Z,4.70
2023-03-28T22:36:07.097Z,4.60
2023-03-28T22:38:35.206Z,3.50
2023-03-28T22:41:03.446Z,4.50
2023-03-28T22:43:33.085Z,4.50
2023-03-28T22:46:01.092Z,4.40
2023-03-28T22:48:31.311Z,4.50
2023-03-28T22:51:01.602Z,4.50
2023-03-28T22:53:30.046Z,4.40
2023-03-28T22:55:58.676Z,4.20
2023-03-28T22:58:27.255Z,4.10
2023-03-28T23:00:56.015Z,3.90
2023-03-28T23:03:24.035Z,3.90
2023-03-28T23:05:54.889Z,3.90
2023-03-28T23:08:25.943Z,3.90
2023-03-28T23:10:53.974Z,3.90
2023-03-28T23:13:22.263Z,3.90
2023-03-28T23:15:50.326Z,4.00
2023-03-28T23:18:19.160Z,4.10
2023-03-28T23:20:50.814Z,4.20
2023-03-28T23:23:19.119Z,4.20
2023-03-28T23:25:48.540Z,4.20
2023-03-28T23:28:18.361Z,4.30
2023-03-28T23:30:48.262Z,4.40
2023-03-28T23:33:18.562Z,4.40
2023-03-28T23:35:48.218Z,4.60
2023-03-28T23:38:17.740Z,4.60
2023-03-28T23:40:46.171Z,4.80
2023-03-28T23:43:15.573Z,4.90
2023-03-28T23:45:43.742Z,5.00
2023-03-28T23:48:11.946Z,5.10
2023-03-28T23:50:39.991Z,5.20
2023-03-28T23:53:08.179Z,5.30
2023-03-28T23:55:36.915Z,5.40
2023-03-28T23:58:05.033Z,5.40
